Time;durP1;ratioP1;P1;durP2;ratioP2;P2;SDS_P1;SDS_P2;PMS_P1;PMS_P2;Temp;Humidity;BMP_temperature;BMP_pressure;BME280_temperature;BME280_humidity;BME280_pressure;Samples;Min_cycle;Max_cycle;Signal;HPM_P1;HPM_P2
2022/07/04 00:00:44;;;;;;;4.70;2.67;;;;;;;15.68;65.46;101945.41;5015063;28;20030;-86
2022/07/04 00:03:10;;;;;;;12.02;2.75;;;;;;;15.58;65.45;101944.38;5013867;28;20030;-85
2022/07/04 00:05:36;;;;;;;4.30;2.60;;;;;;;15.48;66.11;101947.88;5013977;28;20044;-85
2022/07/04 00:08:01;;;;;;;6.18;2.72;;;;;;;15.42;66.00;101931.84;5014597;28;20037;-86
2022/07/04 00:10:26;;;;;;;5.57;2.90;;;;;;;15.49;65.54;101931.88;5030804;28;20030;-86
2022/07/04 00:12:52;;;;;;;4.90;2.83;;;;;;;15.59;65.08;101938.19;5013563;28;20481;-85
2022/07/04 00:15:18;;;;;;;7.53;3.00;;;;;;;15.56;65.50;101943.50;5014254;28;20538;-85
2022/07/04 00:17:43;;;;;;;6.18;3.00;;;;;;;15.63;65.09;101936.41;5014817;28;20523;-86
2022/07/04 00:20:10;;;;;;;6.85;2.92;;;;;;;15.76;64.68;101933.03;5030377;28;20034;-85
2022/07/04 00:22:35;;;;;;;7.53;2.60;;;;;;;15.83;64.23;101932.16;5030064;28;20516;-85
2022/07/04 00:25:01;;;;;;;5.68;2.40;;;;;;;15.90;64.03;101927.78;5014082;28;20022;-85
2022/07/04 00:27:27;;;;;;;7.10;2.65;;;;;;;15.97;63.71;101934.91;5013665;28;20104;-85
2022/07/04 00:29:52;;;;;;;6.85;2.50;;;;;;;15.92;63.62;101926.88;5030015;28;20460;-85
2022/07/04 00:32:18;;;;;;;4.28;2.50;;;;;;;15.74;64.05;101926.78;5013023;28;20117;-85
2022/07/04 00:34:43;;;;;;;6.90;2.58;;;;;;;15.78;64.17;101926.81;5029677;28;20033;-85
2022/07/04 00:37:09;;;;;;;6.15;2.83;;;;;;;15.72;63.83;101929.44;5014728;28;20462;-85
2022/07/04 00:39:34;;;;;;;3.75;2.30;;;;;;;15.54;64.41;101921.25;5014095;28;20120;-85
2022/07/04 00:42:00;;;;;;;5.28;2.60;;;;;;;15.60;64.17;101925.75;4996950;28;20050;-85
2022/07/04 00:44:25;;;;;;;5.55;2.63;;;;;;;15.49;64.17;101920.34;5014860;28;20032;-86
2022/07/04 00:46:51;;;;;;;4.15;2.55;;;;;;;15.55;64.61;101930.16;5014532;28;20095;-86
2022/07/04 00:49:17;;;;;;;7.57;2.90;;;;;;;15.57;64.57;101933.72;5014401;28;20032;-85
2022/07/04 00:51:44;;;;;;;4.38;2.83;;;;;;;15.49;64.64;101923.00;5013814;28;20120;-85
2022/07/04 00:54:12;;;;;;;4.38;2.60;;;;;;;15.52;64.56;101928.34;5012930;28;20389;-86
2022/07/04 00:56:40;;;;;;;4.85;2.88;;;;;;;15.40;64.71;101930.94;5014182;28;20033;-86
2022/07/04 00:59:06;;;;;;;4.78;2.63;;;;;;;15.37;65.21;101926.44;5029257;28;20037;-86
2022/07/04 01:01:32;;;;;;;4.47;3.08;;;;;;;15.34;64.90;101929.09;5013066;28;20061;-86
2022/07/04 01:03:58;;;;;;;6.72;2.90;;;;;;;15.20;65.66;101929.00;5013087;28;20034;-86
2022/07/04 01:06:24;;;;;;;7.93;2.80;;;;;;;15.14;65.37;101922.72;5014137;28;20041;-86
2022/07/04 01:08:49;;;;;;;4.18;2.63;;;;;;;15.08;65.92;101928.00;5014044;28;20060;-85
2022/07/04 01:11:16;;;;;;;4.20;3.28;;;;;;;14.87;66.79;101915.34;5013949;28;20114;-86
2022/07/04 01:13:42;;;;;;;4.53;2.80;;;;;;;14.90;67.02;101916.28;4996058;28;20465;-85
2022/07/04 01:16:09;;;;;;;6.72;3.00;;;;;;;14.83;67.10;101918.88;5014016;28;20037;-86
2022/07/04 01:18:35;;;;;;;5.72;2.80;;;;;;;14.80;66.83;101922.38;5013978;28;20492;-85
2022/07/04 01:21:01;;;;;;;7.55;2.92;;;;;;;14.94;66.42;101917.19;5012948;28;20030;-86
2022/07/04 01:23:26;;;;;;;3.92;2.95;;;;;;;15.07;66.05;101910.22;5012328;28;20025;-86
2022/07/04 01:25:52;;;;;;;4.20;2.90;;;;;;;15.08;65.96;101907.59;5012327;28;20046;-86
2022/07/04 01:28:22;;;;;;;4.75;2.70;;;;;;;15.05;65.71;101899.56;5015199;28;20076;-85
2022/07/04 01:30:48;;;;;;;5.40;2.90;;;;;;;14.84;66.39;101905.56;5000695;28;20038;-86
2022/07/04 01:33:14;;;;;;;5.75;2.85;;;;;;;14.67;67.18;101902.72;5016568;28;20184;-85
2022/07/04 01:35:39;;;;;;;5.22;2.80;;;;;;;14.63;67.13;101903.56;5016733;28;20053;-86
2022/07/04 01:38:05;;;;;;;5.00;2.92;;;;;;;14.51;67.30;101896.34;5017990;28;20037;-86
2022/07/04 01:40:30;;;;;;;5.03;2.70;;;;;;;14.45;67.90;101906.00;5000318;28;20536;-85
2022/07/04 01:42:58;;;;;;;4.80;2.63;;;;;;;14.46;67.63;101898.00;5033153;28;20041;-86
2022/07/04 01:45:23;;;;;;;4.28;2.60;;;;;;;14.39;67.96;101890.88;5018229;28;20029;-86
2022/07/04 01:47:49;;;;;;;3.70;2.60;;;;;;;14.44;68.00;101898.91;5017436;28;20529;-85
2022/07/04 01:50:14;;;;;;;5.50;2.70;;;;;;;14.48;67.81;101892.72;5016621;28;20026;-86
2022/07/04 01:52:41;;;;;;;6.57;2.90;;;;;;;14.51;67.51;101893.66;5016387;28;20466;-85
2022/07/04 01:55:08;;;;;;;4.32;2.65;;;;;;;14.60;66.72;101884.91;5032657;28;20077;-86
2022/07/04 01:57:34;;;;;;;8.13;2.60;;;;;;;14.60;66.97;101882.25;5000283;28;20096;-86
2022/07/04 02:02:43;;;;;;;4.25;2.50;;;;;;;14.59;66.64;101884.91;5017440;28;20081;-86
2022/07/04 02:05:08;;;;;;;4.05;2.47;;;;;;;14.60;66.80;101887.56;5016516;28;20462;-86
2022/07/04 02:07:34;;;;;;;5.40;2.45;;;;;;;14.65;66.55;101884.97;5019211;28;20488;-86
2022/07/04 02:10:00;;;;;;;7.03;2.60;;;;;;;14.75;66.42;101878.88;5034668;28;20030;-86
2022/07/04 02:15:10;;;;;;;6.30;2.70;;;;;;;14.74;65.72;101872.66;5017949;28;20476;-86
2022/07/04 02:17:35;;;;;;;5.82;2.85;;;;;;;14.68;66.25;101882.31;5016218;28;20450;-86
2022/07/04 02:20:01;;;;;;;4.07;2.80;;;;;;;14.55;66.73;101883.06;5016587;28;20088;-86
2022/07/04 02:22:26;;;;;;;4.57;2.70;;;;;;;14.44;66.54;101882.94;5016189;28;20040;-86
2022/07/04 02:24:52;;;;;;;4.93;2.85;;;;;;;14.44;67.08;101885.59;5032688;28;20064;-86
2022/07/04 02:27:17;;;;;;;3.90;2.88;;;;;;;14.49;66.81;101887.47;5015919;28;20050;-86
2022/07/04 02:29:43;;;;;;;4.85;2.70;;;;;;;14.52;66.86;101878.63;5015697;28;20034;-85
2022/07/04 02:32:09;;;;;;;4.07;2.80;;;;;;;14.51;67.07;101896.34;5017139;28;20045;-85
2022/07/04 02:34:35;;;;;;;3.22;2.88;;;;;;;14.34;67.43;101887.22;5032110;28;20030;-86
2022/07/04 02:37:01;;;;;;;4.00;2.70;;;;;;;14.24;67.37;101888.91;5031655;28;20041;-86
2022/07/04 02:39:26;;;;;;;4.85;2.70;;;;;;;14.13;68.28;101886.97;5015976;28;20129;-86
2022/07/04 02:41:51;;;;;;;5.07;2.70;;;;;;;14.02;68.52;101895.69;4999015;28;20052;-86
2022/07/04 02:44:17;;;;;;;5.50;3.05;;;;;;;13.97;68.68;101885.91;5031762;28;20029;-86
2022/07/04 02:46:42;;;;;;;4.55;2.70;;;;;;;13.97;68.55;101892.09;5015896;28;20084;-86
2022/07/04 02:49:08;;;;;;;4.60;2.75;;;;;;;13.94;69.28;101893.81;4998886;28;20458;-86
2022/07/04 02:51:34;;;;;;;4.07;2.35;;;;;;;13.99;68.90;101892.09;4998546;28;20034;-86
2022/07/04 02:53:59;;;;;;;3.55;2.50;;;;;;;14.11;68.37;101899.34;5031755;28;20389;-86
2022/07/04 02:56:25;;;;;;;3.63;2.78;;;;;;;14.20;67.84;101891.50;5016484;28;20041;-86
2022/07/04 02:58:51;;;;;;;4.20;2.50;;;;;;;14.11;67.93;101897.59;5016360;28;20042;-85
2022/07/04 03:01:18;;;;;;;4.05;2.50;;;;;;;14.02;68.17;101901.03;4998734;28;20037;-86
2022/07/04 03:03:43;;;;;;;5.43;2.88;;;;;;;14.03;68.17;101891.28;5016175;28;20042;-86
2022/07/04 03:06:09;;;;;;;3.90;2.50;;;;;;;14.07;67.89;101901.06;5016204;28;20052;-86
2022/07/04 03:08:35;;;;;;;4.78;2.72;;;;;;;14.11;67.56;101897.59;5031438;28;20464;-86
2022/07/04 03:11:00;;;;;;;5.85;2.92;;;;;;;14.16;67.58;101897.66;5016126;28;20034;-86
2022/07/04 03:13:26;;;;;;;5.32;2.65;;;;;;;14.10;67.49;101900.25;5031354;28;20026;-86
2022/07/04 03:15:52;;;;;;;4.50;2.83;;;;;;;14.04;67.58;101909.88;5031059;28;20513;-86
2022/07/04 03:18:17;;;;;;;5.90;2.90;;;;;;;13.87;68.04;101910.53;5016212;28;20038;-86
2022/07/04 03:20:43;;;;;;;3.63;2.70;;;;;;;13.74;68.80;101917.44;5014459;28;20068;-86
2022/07/04 03:23:08;;;;;;;7.70;2.70;;;;;;;13.71;69.14;101928.91;5015802;28;20042;-86
2022/07/04 03:25:34;;;;;;;5.60;2.78;;;;;;;13.63;69.33;101927.03;5015775;28;20448;-86
2022/07/04 03:27:59;;;;;;;3.63;2.60;;;;;;;13.60;69.02;101925.19;5031470;28;20125;-86
2022/07/04 03:30:25;;;;;;;5.90;2.40;;;;;;;13.68;68.98;101930.63;5014272;28;20480;-86
2022/07/04 03:32:50;;;;;;;4.38;2.60;;;;;;;13.76;68.66;101921.03;5014400;28;20111;-86
2022/07/04 03:35:16;;;;;;;3.53;2.40;;;;;;;13.88;68.38;101928.28;5015618;28;20030;-85
2022/07/04 03:37:41;;;;;;;3.95;2.45;;;;;;;13.93;68.08;101931.91;4997776;28;20432;-86
2022/07/04 03:40:07;;;;;;;5.68;2.45;;;;;;;13.87;68.43;101926.47;5030934;28;20033;-86
2022/07/04 03:42:33;;;;;;;3.17;2.42;;;;;;;13.78;68.72;101935.19;5014397;28;20054;-86
2022/07/04 03:44:58;;;;;;;6.90;2.70;;;;;;;13.72;69.15;101940.44;4998038;28;20484;-86
2022/07/04 03:47:24;;;;;;;3.60;2.50;;;;;;;13.52;70.02;101924.19;5013878;28;20038;-86
2022/07/04 03:49:49;;;;;;;5.10;2.45;;;;;;;13.42;71.05;101943.50;5013945;28;20030;-86
2022/07/04 03:52:14;;;;;;;6.20;2.90;;;;;;;13.22;71.43;101944.03;5030203;28;20084;-86
2022/07/04 03:54:40;;;;;;;6.32;2.78;;;;;;;13.19;72.08;101957.25;5015107;28;20037;-86
2022/07/04 03:57:05;;;;;;;6.25;3.20;;;;;;;13.16;72.71;101951.88;5013978;28;20030;-86
2022/07/04 03:59:31;;;;;;;5.07;2.92;;;;;;;13.21;72.49;101951.94;4997897;28;20117;-86
2022/07/04 04:01:56;;;;;;;4.75;2.85;;;;;;;13.26;72.54;101961.81;5013684;28;20370;-86
2022/07/04 04:07:06;;;;;;;6.38;3.10;;;;;;;13.35;72.11;101953.09;5015390;28;20396;-86
2022/07/04 04:09:31;;;;;;;5.68;2.95;;;;;;;13.41;72.03;101966.50;5014851;28;20025;-87
2022/07/04 04:11:57;;;;;;;7.90;3.30;;;;;;;13.41;72.84;101957.66;5013617;28;20060;-86
2022/07/04 04:14:24;;;;;;;6.03;3.20;;;;;;;13.48;72.74;101964.81;5015468;28;20042;-86
2022/07/04 04:16:49;;;;;;;6.78;2.83;;;;;;;13.64;71.88;101958.00;5013858;28;20045;-86
2022/07/04 04:19:15;;;;;;;5.68;2.70;;;;;;;13.85;71.26;101952.16;4981029;28;20034;-86
2022/07/04 04:21:40;;;;;;;4.38;2.90;;;;;;;13.94;70.57;101954.94;4997131;28;20049;-86
2022/07/04 04:24:07;;;;;;;3.08;2.47;;;;;;;14.00;70.81;101958.59;5030005;28;20037;-86
2022/07/04 04:26:33;;;;;;;4.05;2.90;;;;;;;13.93;71.86;101975.31;5030172;28;20062;-87
2022/07/04 04:28:58;;;;;;;6.85;3.15;;;;;;;13.84;72.98;101971.63;5015028;28;20484;-87
2022/07/04 04:31:24;;;;;;;4.30;2.95;;;;;;;13.86;72.80;101975.19;4997266;28;20461;-86
2022/07/04 04:33:49;;;;;;;5.85;3.70;;;;;;;13.90;73.16;101980.56;5013471;28;20400;-86
2022/07/04 04:36:14;;;;;;;5.57;3.35;;;;;;;13.94;73.49;101989.47;5013388;28;20030;-88
2022/07/04 04:38:42;;;;;;;10.45;3.92;;;;;;;14.09;73.52;101988.78;5015068;28;20411;-86
2022/07/04 04:41:08;;;;;;;7.85;3.53;;;;;;;14.32;72.90;101991.81;5013434;28;20042;-86
2022/07/04 04:43:33;;;;;;;5.47;3.45;;;;;;;14.41;72.60;101981.28;5014359;28;20084;-86
2022/07/04 04:45:59;;;;;;;6.78;3.80;;;;;;;14.41;72.70;101970.66;5013778;28;20030;-87
2022/07/04 04:48:25;;;;;;;7.55;3.80;;;;;;;14.53;72.79;101979.72;5013186;28;20045;-89
2022/07/04 04:50:50;;;;;;;6.80;3.60;;;;;;;14.59;73.01;101983.31;5014180;28;20030;-85
2022/07/04 04:53:15;;;;;;;5.63;3.35;;;;;;;14.62;73.20;101975.38;5012874;28;20528;-86
2022/07/04 04:55:41;;;;;;;6.47;3.45;;;;;;;14.65;73.20;101973.66;5013713;28;20040;-86
2022/07/04 04:58:06;;;;;;;4.97;3.30;;;;;;;14.80;72.93;101980.03;5013705;28;20120;-84
2022/07/04 05:00:32;;;;;;;8.70;3.22;;;;;;;14.92;72.58;101962.41;5014556;28;20045;-85
2022/07/04 05:02:57;;;;;;;4.82;3.42;;;;;;;15.02;72.75;101966.06;5014224;28;20376;-85
2022/07/04 05:05:23;;;;;;;8.95;3.40;;;;;;;15.15;71.81;101970.63;5014117;28;20048;-86
2022/07/04 05:07:48;;;;;;;9.18;4.00;;;;;;;15.11;72.51;101968.81;5029166;28;20393;-85
2022/07/04 05:10:15;;;;;;;13.80;4.20;;;;;;;15.11;73.19;101966.16;4996448;28;20083;-85
2022/07/04 05:12:41;;;;;;;7.55;3.53;;;;;;;15.22;72.50;101959.19;5014523;28;20033;-85
2022/07/04 05:15:07;;;;;;;10.30;4.05;;;;;;;15.25;74.02;101968.97;5012919;28;20026;-85
2022/07/04 05:17:32;;;;;;;7.32;4.28;;;;;;;15.27;73.97;101964.53;4996344;28;20045;-84
2022/07/04 05:19:59;;;;;;;9.07;4.45;;;;;;;15.29;73.39;101968.13;5012703;28;20099;-84
2022/07/04 05:22:25;;;;;;;10.60;4.55;;;;;;;15.33;72.99;101963.69;5013591;28;20026;-84
2022/07/04 05:24:50;;;;;;;9.68;4.55;;;;;;;15.38;73.30;101964.66;5012645;28;20040;-85
2022/07/04 05:27:16;;;;;;;6.53;4.25;;;;;;;15.40;73.56;101963.78;4996305;28;20049;-84
2022/07/04 05:29:41;;;;;;;8.25;4.22;;;;;;;15.47;73.62;101967.41;5012384;28;20498;-84
2022/07/04 05:32:07;;;;;;;8.50;3.92;;;;;;;15.65;72.88;101959.56;5012392;28;20496;-84
2022/07/04 05:34:32;;;;;;;11.27;4.20;;;;;;;15.89;72.19;101968.66;4996260;28;20037;-84
2022/07/04 05:36:58;;;;;;;10.05;4.47;;;;;;;16.06;72.45;101961.66;5012673;28;20366;-84
2022/07/04 05:39:23;;;;;;;10.90;3.85;;;;;;;16.17;70.28;101969.69;5012815;28;20117;-85
2022/07/04 05:41:48;;;;;;;11.00;3.95;;;;;;;16.24;70.56;101971.53;5014120;28;20034;-85
2022/07/04 05:44:14;;;;;;;11.57;4.00;;;;;;;16.34;70.70;101972.47;5014193;28;20034;-85
2022/07/04 05:46:39;;;;;;;12.63;4.30;;;;;;;16.35;70.29;101974.22;5012743;28;20492;-85
2022/07/04 05:49:05;;;;;;;12.30;4.05;;;;;;;16.56;69.60;101982.34;5012390;28;20070;-85
2022/07/04 05:51:30;;;;;;;10.13;3.90;;;;;;;16.76;70.22;101975.34;4996170;28;20030;-85
2022/07/04 05:53:55;;;;;;;12.75;4.07;;;;;;;16.87;69.59;101977.13;5012219;28;20529;-85
2022/07/04 05:56:21;;;;;;;10.45;4.20;;;;;;;17.00;69.18;101978.94;5014167;28;20038;-85
2022/07/04 05:58:47;;;;;;;10.63;3.90;;;;;;;17.07;69.10;101979.88;5012731;28;20485;-85
2022/07/04 06:01:12;;;;;;;13.18;4.03;;;;;;;17.17;69.17;101979.91;5013516;28;20421;-84
2022/07/04 06:03:38;;;;;;;11.18;3.80;;;;;;;17.32;69.00;101979.03;5012573;28;20382;-84
2022/07/04 06:06:04;;;;;;;13.30;3.95;;;;;;;17.53;68.85;101980.81;5013188;28;20076;-84
2022/07/04 06:08:29;;;;;;;8.27;3.30;;;;;;;17.61;67.73;101983.50;5012375;28;20438;-84
2022/07/04 06:10:55;;;;;;;11.48;3.78;;;;;;;17.79;68.37;101993.31;5012056;28;20038;-85
2022/07/04 06:13:20;;;;;;;8.10;3.28;;;;;;;18.02;65.54;101981.69;5029698;28;20062;-85
2022/07/04 06:15:46;;;;;;;8.05;2.95;;;;;;;18.15;65.17;101981.66;5015549;28;20088;-85
2022/07/04 06:18:12;;;;;;;10.82;3.60;;;;;;;18.21;64.78;101984.34;5016153;28;20121;-84
2022/07/04 06:20:39;;;;;;;5.57;3.20;;;;;;;18.31;65.07;101978.06;5017606;28;20076;-84
2022/07/04 06:23:05;;;;;;;11.35;3.40;;;;;;;18.47;64.12;101981.59;5017159;28;20034;-84
2022/07/04 06:25:31;;;;;;;6.45;3.10;;;;;;;18.61;63.82;101985.09;5016441;28;20533;-85
2022/07/04 06:27:57;;;;;;;9.00;3.70;;;;;;;18.91;63.39;101980.50;5017163;28;20509;-85
2022/07/04 06:30:23;;;;;;;10.02;3.45;;;;;;;19.14;61.46;101986.63;5016431;28;20034;-84
2022/07/04 06:32:51;;;;;;;7.85;3.40;;;;;;;19.29;61.59;101982.06;5015504;28;20092;-85
2022/07/04 06:38:06;;;;;;;8.23;3.40;;;;;;;19.36;60.69;101984.69;5016676;28;20068;-85
2022/07/04 06:40:32;;;;;;;5.97;3.60;;;;;;;19.37;60.36;101988.25;5015771;28;20033;-84
2022/07/04 06:42:57;;;;;;;11.25;3.90;;;;;;;19.37;60.91;101990.94;5031780;28;20041;-84
2022/07/04 06:45:23;;;;;;;8.55;3.65;;;;;;;19.35;60.01;101987.38;5016758;28;20096;-84
2022/07/04 06:47:48;;;;;;;5.70;3.10;;;;;;;19.61;59.06;101988.06;4999623;28;20393;-84
2022/07/04 06:50:14;;;;;;;10.50;3.60;;;;;;;19.77;58.90;101983.47;5031704;28;20033;-84
2022/07/04 06:52:39;;;;;;;7.68;3.60;;;;;;;19.93;58.39;101979.75;5031976;28;20045;-85
2022/07/04 06:55:06;;;;;;;11.77;3.50;;;;;;;19.96;58.12;101989.56;5032529;28;20472;-84
2022/07/04 06:57:31;;;;;;;8.15;3.53;;;;;;;19.79;58.98;101991.53;5031433;28;20034;-83
2022/07/04 06:59:57;;;;;;;10.15;3.78;;;;;;;19.81;58.49;101990.59;5015006;28;20038;-84
2022/07/04 07:02:23;;;;;;;8.32;3.45;;;;;;;19.77;59.33;101978.13;5015075;28;20033;-83
2022/07/04 07:04:48;;;;;;;5.20;3.17;;;;;;;19.95;58.69;101975.25;5031456;28;20033;-83
2022/07/04 07:07:13;;;;;;;7.78;3.33;;;;;;;20.14;57.92;101969.72;5031436;28;20037;-83
2022/07/04 07:09:39;;;;;;;11.27;3.50;;;;;;;20.28;56.49;101973.13;5016023;28;20485;-84
2022/07/04 07:12:04;;;;;;;9.32;3.55;;;;;;;20.27;56.43;101974.03;5032070;28;20108;-84
2022/07/04 07:14:30;;;;;;;7.50;3.05;;;;;;;20.37;56.58;101972.13;5016073;28;20504;-84
2022/07/04 07:16:55;;;;;;;8.82;3.03;;;;;;;20.72;55.55;101974.38;5016342;28;20037;-85
2022/07/04 07:19:21;;;;;;;6.35;2.92;;;;;;;20.78;54.16;101968.94;5016134;28;20034;-84
2022/07/04 07:21:46;;;;;;;7.75;2.90;;;;;;;20.95;53.53;101974.97;5016062;28;20050;-87
2022/07/04 07:24:12;;;;;;;9.02;3.13;;;;;;;21.15;53.44;101974.66;5014989;28;20038;-88
2022/07/04 07:26:37;;;;;;;6.80;2.80;;;;;;;21.38;52.78;101968.09;5013874;28;20060;-84
2022/07/04 07:29:02;;;;;;;5.55;3.03;;;;;;;21.50;52.08;101973.28;4999462;28;20042;-88
2022/07/04 07:31:35;;;;;;;7.55;2.95;;;;;;;21.51;52.40;101969.66;5016935;28;20041;-91
2022/07/04 07:34:01;;;;;;;9.93;3.00;;;;;;;21.61;51.14;101981.16;5032942;28;20088;-85
2022/07/04 07:36:26;;;;;;;11.82;3.05;;;;;;;21.69;50.88;101981.91;5015435;28;20417;-85
2022/07/04 07:38:53;;;;;;;7.25;2.90;;;;;;;21.64;51.64;101984.69;5015253;28;20084;-85
2022/07/04 07:41:18;;;;;;;7.65;3.00;;;;;;;21.83;51.19;101984.34;5014992;28;20038;-85
2022/07/04 07:43:44;;;;;;;8.85;3.20;;;;;;;22.18;50.16;101986.41;4998173;28;20034;-85
2022/07/04 07:46:09;;;;;;;7.85;2.97;;;;;;;22.36;50.05;101982.50;5014367;28;20068;-85
2022/07/04 07:48:35;;;;;;;7.47;2.83;;;;;;;22.45;49.13;101979.63;5014702;28;20030;-85
2022/07/04 07:51:00;;;;;;;7.10;3.03;;;;;;;22.58;49.38;101978.44;5030604;28;20457;-85
2022/07/04 07:53:26;;;;;;;7.57;3.20;;;;;;;22.72;48.76;101965.56;5015483;28;20037;-85
2022/07/04 07:55:51;;;;;;;7.15;3.00;;;;;;;22.72;47.10;101973.63;5015607;28;20045;-85
2022/07/04 07:58:17;;;;;;;8.82;3.10;;;;;;;22.77;47.71;101967.25;5031159;28;20499;-85
2022/07/04 08:00:42;;;;;;;6.50;2.78;;;;;;;22.92;47.67;101962.47;5014428;28;20030;-85
2022/07/04 08:05:52;;;;;;;8.15;3.17;;;;;;;23.01;46.24;101950.56;5015573;28;20115;-85
2022/07/04 08:08:17;;;;;;;6.53;2.55;;;;;;;22.97;46.76;101949.75;5016292;28;20075;-85
2022/07/04 08:10:42;;;;;;;9.38;2.53;;;;;;;23.07;46.56;101949.53;5012744;28;20097;-85
2022/07/04 08:13:08;;;;;;;4.30;2.38;;;;;;;23.37;44.72;101959.56;5052616;28;20065;-85
2022/07/04 08:15:33;;;;;;;9.60;2.55;;;;;;;23.52;44.46;101952.94;5027875;28;20197;-85
2022/07/04 08:17:59;;;;;;;5.93;2.30;;;;;;;23.83;42.84;101960.25;5015593;28;20034;-85
2022/07/04 08:20:25;;;;;;;5.47;2.28;;;;;;;24.01;41.84;101959.75;5030825;28;20038;-85
2022/07/04 08:22:50;;;;;;;6.90;2.35;;;;;;;24.08;41.83;101961.34;5013685;28;20030;-85
2022/07/04 08:25:16;;;;;;;6.45;2.58;;;;;;;24.21;42.74;101957.38;5030800;28;20029;-85
2022/07/04 08:27:43;;;;;;;3.60;2.05;;;;;;;24.57;41.79;101964.50;4996908;28;20096;-85
2022/07/04 08:30:09;;;;;;;4.93;2.20;;;;;;;24.83;41.31;101969.09;5013494;28;20033;-85
2022/07/04 08:32:34;;;;;;;4.47;1.90;;;;;;;25.00;41.25;101969.47;5014709;28;20034;-85
2022/07/04 08:35:01;;;;;;;3.97;1.95;;;;;;;25.10;40.98;101971.00;5030065;28;20029;-86
2022/07/04 08:37:28;;;;;;;5.07;2.28;;;;;;;24.90;40.16;101982.41;5013271;28;20520;-85
2022/07/04 08:39:53;;;;;;;3.38;2.10;;;;;;;24.83;41.14;101963.69;5015212;28;20092;-85
2022/07/04 08:42:20;;;;;;;6.40;2.15;;;;;;;24.83;40.00;101975.41;5014234;28;20041;-85
2022/07/04 08:44:52;;;;;;;3.92;2.22;;;;;;;24.77;41.76;101972.88;5013160;28;20026;-85
2022/07/04 08:47:23;;;;;;;3.97;2.28;;;;;;;24.99;41.12;101974.00;5013328;28;20475;-85
2022/07/04 08:50:17;;;;;;;5.72;2.45;;;;;;;25.01;42.15;101979.38;5014440;28;20030;-85
2022/07/04 08:52:52;;;;;;;6.90;2.35;;;;;;;25.40;40.14;101976.34;5028603;28;20033;-85
2022/07/04 09:00:50;;;;;;;6.20;2.33;;;;;;;25.35;42.05;101979.22;5013381;28;20049;-85
2022/07/04 09:03:18;;;;;;;9.15;2.45;;;;;;;25.76;39.88;101978.72;5013995;28;20532;-85
2022/07/04 09:05:43;;;;;;;7.18;2.30;;;;;;;25.89;39.48;101982.81;5014341;28;20384;-86
2022/07/04 09:08:09;;;;;;;7.03;2.13;;;;;;;25.97;38.60;101976.19;5014664;28;20045;-85
2022/07/04 09:10:35;;;;;;;4.78;2.20;;;;;;;25.93;39.39;101977.22;5014038;28;20454;-85
2022/07/04 09:13:06;;;;;;;6.68;2.40;;;;;;;26.09;39.29;101969.44;5029265;28;20362;-85
2022/07/04 09:15:32;;;;;;;5.75;2.22;;;;;;;26.07;39.19;101973.16;5014125;28;20058;-85
2022/07/04 09:17:58;;;;;;;5.50;2.20;;;;;;;26.35;38.73;101964.91;5013820;28;20030;-85
2022/07/04 09:20:24;;;;;;;5.95;2.20;;;;;;;26.37;38.77;101972.00;5014361;28;20033;-85
2022/07/04 09:22:52;;;;;;;5.22;2.22;;;;;;;26.51;38.11;101968.84;5012828;28;20049;-85
2022/07/04 09:25:19;;;;;;;6.60;2.05;;;;;;;26.62;37.27;101977.44;5029303;28;20041;-86
2022/07/04 09:27:55;;;;;;;5.65;2.15;;;;;;;26.65;37.91;101979.16;5028687;28;20042;-86
2022/07/04 09:30:23;;;;;;;6.05;2.20;;;;;;;26.76;37.06;101970.59;5014479;28;20040;-86
2022/07/04 09:32:52;;;;;;;7.07;2.15;;;;;;;26.88;37.59;101980.97;5014001;28;20030;-86
2022/07/04 09:35:23;;;;;;;4.82;1.88;;;;;;;26.92;37.21;101972.63;5014546;28;20129;-86
2022/07/04 09:37:49;;;;;;;6.30;2.15;;;;;;;26.79;37.05;101968.66;5013881;28;20497;-86
2022/07/04 09:40:31;;;;;;;5.38;1.95;;;;;;;27.00;38.06;101976.88;5029417;28;20030;-85
2022/07/04 09:42:58;;;;;;;5.83;2.10;;;;;;;27.18;36.51;101966.19;5014213;28;20025;-85
2022/07/04 09:45:24;;;;;;;8.65;1.90;;;;;;;27.61;36.00;101964.41;5030017;28;20377;-85
2022/07/04 09:47:54;;;;;;;9.32;2.08;;;;;;;27.79;35.22;101962.75;5012652;28;20030;-85
2022/07/04 09:50:21;;;;;;;5.85;2.10;;;;;;;27.87;35.02;101954.25;5032153;28;20026;-86
2022/07/04 09:52:53;;;;;;;6.50;2.30;;;;;;;28.10;33.68;101962.28;5017407;28;20441;-85
2022/07/04 09:55:34;;;;;;;;;;;;;;;28.19;35.04;101964.59;5018293;28;20161;-85
2022/07/04 09:58:02;;;;;;;7.53;2.30;;;;;;;28.05;34.82;101964.34;5017232;28;19909;-85
2022/07/04 10:00:33;;;;;;;3.88;2.03;;;;;;;28.29;34.06;101961.44;5016960;28;20491;-85
2022/07/04 10:03:36;;;;;;;7.43;2.20;;;;;;;28.63;35.01;101958.09;5017959;28;20133;-86
2022/07/04 10:06:12;;;;;;;9.40;2.05;;;;;;;28.71;34.22;101961.31;5017442;28;20052;-86
2022/07/04 10:08:42;;;;;;;6.22;2.20;;;;;;;29.02;33.69;101954.44;5032642;28;20121;-86
2022/07/04 10:11:09;;;;;;;6.57;2.10;;;;;;;29.10;32.63;101947.66;5017232;28;20113;-86
2022/07/04 10:13:35;;;;;;;4.88;2.10;;;;;;;29.14;32.78;101962.00;5017227;28;20037;-86
2022/07/04 10:16:01;;;;;;;5.05;2.20;;;;;;;28.79;32.75;101961.84;5016572;28;20030;-85
2022/07/04 10:18:26;;;;;;;4.15;1.88;;;;;;;28.82;33.33;101964.44;5032372;28;20033;-86
2022/07/04 10:20:53;;;;;;;4.15;2.10;;;;;;;28.84;33.04;101948.91;5017936;28;20049;-85
2022/07/04 10:23:20;;;;;;;8.48;2.50;;;;;;;28.79;32.62;101948.25;5017089;28;20491;-86
2022/07/04 10:25:50;;;;;;;6.40;2.53;;;;;;;28.09;34.16;101944.19;5016515;28;20073;-86
2022/07/04 10:28:19;;;;;;;6.90;2.30;;;;;;;28.15;34.26;101948.50;5016136;28;20099;-85
2022/07/04 10:30:51;;;;;;;5.38;2.08;;;;;;;28.53;34.24;101938.59;5016692;28;20037;-86
2022/07/04 10:33:22;;;;;;;7.75;2.28;;;;;;;28.59;32.90;101935.56;5016780;28;20026;-86
2022/07/04 10:36:21;;;;;;;6.78;2.40;;;;;;;28.82;33.95;101931.78;5016776;28;20025;-86
2022/07/04 10:38:54;;;;;;;6.65;2.60;;;;;;;28.83;32.35;101938.09;4992170;28;20042;-85
2022/07/04 10:41:21;;;;;;;8.73;2.13;;;;;;;29.12;31.78;101933.94;5032256;28;20030;-85
2022/07/04 10:44:14;;;;;;;5.35;2.25;;;;;;;29.39;32.84;101927.13;5015350;28;20034;-85
2022/07/04 10:46:47;;;;;;;8.15;2.40;;;;;;;29.60;32.39;101927.91;4985032;28;20065;-86
2022/07/04 10:49:17;;;;;;;6.90;2.40;;;;;;;29.44;31.18;101929.63;5017466;28;20089;-86
2022/07/04 10:51:47;;;;;;;4.13;2.20;;;;;;;29.25;31.99;101928.78;5031553;28;20026;-85
2022/07/04 10:54:30;;;;;;;5.13;2.35;;;;;;;29.22;32.02;101924.38;5016109;28;20120;-86
2022/07/04 10:57:19;;;;;;;5.85;2.30;;;;;;;29.06;32.74;101918.81;5016696;28;20037;-86
2022/07/04 10:59:57;;;;;;;9.68;2.33;;;;;;;28.71;33.20;101912.34;5017205;28;20048;-86
2022/07/04 11:02:39;;;;;;;8.05;2.50;;;;;;;28.65;31.96;101920.78;5017453;28;20048;-86
2022/07/04 11:05:14;;;;;;;4.25;2.13;;;;;;;28.42;32.54;101919.19;5015562;28;20033;-86
2022/07/04 11:07:40;;;;;;;7.75;2.40;;;;;;;28.63;34.60;101917.28;5016918;28;20378;-86
2022/07/04 11:12:54;;;;;;;6.57;2.38;;;;;;;28.69;33.28;101920.59;5016387;28;20124;-85
2022/07/04 11:15:32;;;;;;;6.05;2.35;;;;;;;28.47;33.41;101913.53;5015932;28;20420;-86
2022/07/04 11:17:58;;;;;;;6.18;2.20;;;;;;;28.28;33.76;101918.91;5016222;28;20025;-85
2022/07/04 11:20:24;;;;;;;4.60;2.03;;;;;;;28.42;33.80;101909.19;5016403;28;20034;-86
2022/07/04 11:22:50;;;;;;;7.22;2.50;;;;;;;28.25;33.83;101910.91;5015994;28;20030;-85
2022/07/04 11:25:15;;;;;;;5.07;2.10;;;;;;;28.02;33.15;101917.41;4981839;28;20428;-85
2022/07/04 11:27:42;;;;;;;6.38;2.30;;;;;;;28.01;33.56;101911.09;5016352;28;20050;-85
2022/07/04 11:30:08;;;;;;;5.93;2.10;;;;;;;27.89;33.95;101912.50;5016236;28;20120;-85
2022/07/04 11:32:36;;;;;;;10.43;2.30;;;;;;;27.68;34.82;101908.88;5015338;28;20037;-85
2022/07/04 11:35:03;;;;;;;11.05;2.55;;;;;;;27.70;34.85;101906.97;5015714;28;20033;-85
2022/07/04 11:37:29;;;;;;;6.25;2.30;;;;;;;28.16;34.63;101901.34;5030827;28;20038;-85
2022/07/04 11:45:02;;;;;;;9.02;3.40;;;;;;;28.34;37.11;101903.19;5014245;28;20029;-85
2022/07/04 11:45:53;;;;;;;9.65;4.22;;;;;;;28.52;36.22;101906.03;5016106;28;20052;-85
2022/07/04 11:48:22;;;;;;;6.85;3.78;;;;;;;28.50;36.02;101897.94;5015144;28;20096;-85